createdAt,value
2018-12-18T00:02:45.391Z,17.97
2018-12-18T00:05:49.420Z,17.03
2018-12-18T00:08:53.440Z,17.53
2018-12-18T00:11:59.361Z,18.47
2018-12-18T00:15:03.669Z,16.00
2018-12-18T00:18:07.679Z,17.07
2018-12-18T00:21:11.708Z,19.10
2018-12-18T00:24:16.320Z,17.83
2018-12-18T00:27:20.343Z,17.20
2018-12-18T00:30:24.367Z,17.90
2018-12-18T00:33:28.462Z,17.63
2018-12-18T00:36:32.503Z,16.47
2018-12-18T00:39:36.507Z,19.17
2018-12-18T00:42:40.555Z,19.97
2018-12-18T00:45:44.667Z,22.23
2018-12-18T00:48:48.691Z,24.87
2018-12-18T00:51:52.712Z,20.60
2018-12-18T00:54:56.723Z,23.17
2018-12-18T00:58:00.854Z,18.93
2018-12-18T01:01:04.880Z,20.63
2018-12-18T01:04:08.890Z,18.83
2018-12-18T01:07:13.008Z,17.17
2018-12-18T01:10:17.035Z,17.57
2018-12-18T01:13:21.140Z,15.83
2018-12-18T01:16:25.172Z,19.60
2018-12-18T01:19:29.185Z,18.97
2018-12-18T01:22:33.206Z,18.70
2018-12-18T01:25:37.223Z,20.80
2018-12-18T01:28:41.247Z,18.97
2018-12-18T01:31:45.273Z,19.33
2018-12-18T01:34:49.335Z,18.30
2018-12-18T01:37:53.354Z,19.33
2018-12-18T01:40:57.412Z,18.90
2018-12-18T01:44:01.462Z,19.00
2018-12-18T01:47:05.490Z,22.77
2018-12-18T01:50:09.597Z,17.87
2018-12-18T01:53:13.626Z,16.97
2018-12-18T01:56:17.652Z,24.73
2018-12-18T01:59:21.722Z,25.97
2018-12-18T02:02:25.739Z,23.07
2018-12-18T02:05:29.747Z,23.00
2018-12-18T02:08:33.762Z,25.70
2018-12-18T02:11:37.860Z,30.37
2018-12-18T02:14:41.851Z,25.90
2018-12-18T02:17:46.051Z,19.87
2018-12-18T02:20:50.222Z,21.97
2018-12-18T02:23:54.234Z,18.10
2018-12-18T02:26:58.260Z,19.93
2018-12-18T02:30:02.279Z,18.30
2018-12-18T02:33:06.286Z,22.90
2018-12-18T02:36:10.305Z,19.27
2018-12-18T02:39:14.333Z,19.13
2018-12-18T02:42:18.342Z,22.20
2018-12-18T02:45:22.342Z,20.07
2018-12-18T02:48:26.719Z,20.33
2018-12-18T02:51:30.733Z,18.00
2018-12-18T02:54:34.835Z,21.30
2018-12-18T02:57:38.847Z,18.13
2018-12-18T03:00:42.852Z,19.70
2018-12-18T03:03:46.861Z,17.80
2018-12-18T03:06:50.875Z,19.30
2018-12-18T03:09:54.883Z,18.17
2018-12-18T03:12:58.894Z,17.33
2018-12-18T03:16:02.914Z,19.90
2018-12-18T03:19:06.925Z,18.10
2018-12-18T03:22:11.030Z,15.07
2018-12-18T03:25:15.048Z,20.00
2018-12-18T03:28:19.113Z,17.47
2018-12-18T03:31:23.514Z,16.40
2018-12-18T03:34:28.386Z,19.50
2018-12-18T03:37:32.784Z,16.90
2018-12-18T03:40:36.885Z,20.23
2018-12-18T03:43:40.902Z,18.30
2018-12-18T03:46:44.911Z,18.43
2018-12-18T03:49:48.935Z,18.73
2018-12-18T03:52:52.961Z,18.73
2018-12-18T03:55:56.964Z,18.73
2018-12-18T03:59:00.989Z,20.17
2018-12-18T04:02:06.127Z,18.93
2018-12-18T04:05:10.302Z,18.77
2018-12-18T04:08:14.297Z,23.40
2018-12-18T04:11:18.307Z,20.27
2018-12-18T04:14:22.317Z,19.60
2018-12-18T04:17:26.326Z,17.60
2018-12-18T04:20:30.355Z,19.57
2018-12-18T04:23:34.363Z,18.70
2018-12-18T04:26:38.369Z,18.87
2018-12-18T04:32:51.763Z,19.63
2018-12-18T04:35:55.790Z,20.53
2018-12-18T04:38:59.791Z,22.00
2018-12-18T04:42:03.805Z,19.57
2018-12-18T04:45:07.971Z,21.47
2018-12-18T04:48:12.818Z,18.07
2018-12-18T04:51:16.835Z,21.90
2018-12-18T04:54:21.043Z,17.50
2018-12-18T04:57:25.053Z,24.03
2018-12-18T05:00:29.075Z,20.37
2018-12-18T05:03:33.100Z,21.03
2018-12-18T05:06:37.133Z,22.13
2018-12-18T05:09:41.127Z,22.53
2018-12-18T05:12:45.151Z,18.97
2018-12-18T05:15:49.242Z,22.33
2018-12-18T05:18:53.244Z,20.43
2018-12-18T05:21:57.631Z,24.53
2018-12-18T05:25:02.195Z,19.77
2018-12-18T05:28:06.326Z,22.53
2018-12-18T05:31:10.350Z,21.53
2018-12-18T05:34:14.359Z,21.87
2018-12-18T05:37:18.367Z,21.33
2018-12-18T05:40:22.373Z,22.47
2018-12-18T05:43:26.492Z,20.83
2018-12-18T05:46:30.571Z,22.07
2018-12-18T05:49:34.602Z,23.83
2018-12-18T05:52:38.614Z,23.03
2018-12-18T05:55:42.612Z,23.43
2018-12-18T05:58:46.630Z,22.63
2018-12-18T06:01:50.641Z,23.53
2018-12-18T06:04:54.663Z,22.33
2018-12-18T06:07:58.667Z,23.50
2018-12-18T06:11:02.678Z,23.90
2018-12-18T06:14:06.693Z,22.87
2018-12-18T06:17:10.946Z,21.67
2018-12-18T06:20:15.333Z,23.07
2018-12-18T06:23:19.514Z,20.20
2018-12-18T06:26:23.543Z,26.40
2018-12-18T06:29:27.564Z,23.13
2018-12-18T06:32:31.706Z,24.87
2018-12-18T06:35:36.379Z,24.07
2018-12-18T06:38:40.795Z,26.97
2018-12-18T06:41:45.044Z,27.40
2018-12-18T06:44:49.531Z,22.90
2018-12-18T06:47:53.599Z,25.37
2018-12-18T06:50:57.674Z,28.07
2018-12-18T06:54:01.692Z,25.33
2018-12-18T06:57:05.712Z,26.20
2018-12-18T07:00:11.802Z,34.77
2018-12-18T07:03:15.858Z,28.17
2018-12-18T07:06:19.942Z,30.67
2018-12-18T07:09:23.946Z,38.17
2018-12-18T07:12:27.975Z,31.20
2018-12-18T07:15:32.475Z,29.77
2018-12-18T07:18:36.708Z,27.00
2018-12-18T07:21:40.718Z,28.90
2018-12-18T07:24:44.726Z,28.20
2018-12-18T07:27:48.754Z,28.93
2018-12-18T07:30:52.880Z,27.50
2018-12-18T07:33:56.887Z,30.07
2018-12-18T07:37:00.907Z,29.47
2018-12-18T07:40:05.811Z,32.70
2018-12-18T07:43:09.837Z,31.10
2018-12-18T07:46:13.868Z,31.70
2018-12-18T07:49:17.878Z,32.93
2018-12-18T07:52:21.927Z,25.30
2018-12-18T07:55:26.015Z,31.27
2018-12-18T07:58:30.030Z,30.70
2018-12-18T08:01:34.206Z,27.20
2018-12-18T08:04:38.237Z,29.67
2018-12-18T08:07:42.246Z,30.80
2018-12-18T08:10:46.363Z,32.00
2018-12-18T08:13:50.383Z,30.40
2018-12-18T08:16:54.487Z,28.87
2018-12-18T08:19:58.586Z,27.77
2018-12-18T08:23:02.591Z,30.37
2018-12-18T08:26:06.675Z,29.57
2018-12-18T08:29:10.690Z,29.13
2018-12-18T08:32:14.724Z,27.83
2018-12-18T08:35:18.742Z,24.97
2018-12-18T08:38:22.771Z,24.80
2018-12-18T08:41:26.782Z,24.53
2018-12-18T08:44:30.794Z,25.63
2018-12-18T08:47:34.805Z,27.47
2018-12-18T08:50:38.860Z,30.67
2018-12-18T08:53:42.873Z,24.73
2018-12-18T08:56:46.906Z,28.27
2018-12-18T08:59:50.910Z,24.37
2018-12-18T09:02:55.025Z,27.20
2018-12-18T09:05:59.035Z,29.17
2018-12-18T09:09:03.702Z,27.33
2018-12-18T09:12:10.230Z,28.73
2018-12-18T09:15:19.621Z,33.03
2018-12-18T09:18:23.638Z,29.10
2018-12-18T09:21:27.742Z,26.13
2018-12-18T09:24:31.762Z,28.20
2018-12-18T09:27:35.870Z,27.57
2018-12-18T09:30:42.731Z,34.53
2018-12-18T09:33:45.886Z,32.30
2018-12-18T09:36:49.902Z,26.00
2018-12-18T09:39:53.918Z,27.93
2018-12-18T09:43:03.319Z,27.77
2018-12-18T09:46:07.318Z,22.40
2018-12-18T09:49:11.346Z,23.07
2018-12-18T09:52:15.340Z,22.43
2018-12-18T09:55:19.368Z,24.40
2018-12-18T09:58:23.471Z,24.77
2018-12-18T10:01:27.473Z,24.63
2018-12-18T10:04:31.485Z,22.60
2018-12-18T10:07:35.486Z,24.53
2018-12-18T10:10:39.495Z,23.23
2018-12-18T10:13:43.501Z,21.77
2018-12-18T10:16:47.515Z,25.93
2018-12-18T10:19:51.551Z,25.10
2018-12-18T10:22:55.555Z,26.83
2018-12-18T10:25:59.570Z,25.57
2018-12-18T10:29:03.666Z,24.50
2018-12-18T10:32:07.674Z,24.30
2018-12-18T10:35:11.681Z,28.63
2018-12-18T10:38:15.683Z,22.30
2018-12-18T10:41:19.702Z,22.07
2018-12-18T10:44:23.698Z,18.53
2018-12-18T10:47:27.813Z,17.30
2018-12-18T10:50:31.815Z,16.27
2018-12-18T10:53:35.979Z,20.30
2018-12-18T10:56:40.009Z,25.00
2018-12-18T10:59:44.007Z,22.40
2018-12-18T11:02:48.027Z,18.50
2018-12-18T11:05:52.026Z,21.07
2018-12-18T11:08:56.135Z,21.10
2018-12-18T11:12:00.151Z,21.23
2018-12-18T11:15:04.353Z,21.67
2018-12-18T11:18:08.455Z,18.77
2018-12-18T11:21:12.465Z,19.33
2018-12-18T11:24:16.470Z,12.47
2018-12-18T11:27:20.475Z,17.63
2018-12-18T11:30:24.482Z,13.33
2018-12-18T11:33:28.734Z,11.47
2018-12-18T11:36:32.750Z,9.80
2018-12-18T11:39:36.737Z,8.93
2018-12-18T11:42:40.830Z,8.00
2018-12-18T11:45:44.823Z,9.00
2018-12-18T11:48:48.842Z,11.20
2018-12-18T11:51:52.835Z,8.33
2018-12-18T11:54:56.827Z,9.30
2018-12-18T11:58:00.827Z,8.90
2018-12-18T12:01:04.923Z,7.67
2018-12-18T12:04:08.954Z,11.40
2018-12-18T12:07:12.963Z,11.10
2018-12-18T12:10:16.957Z,8.40
2018-12-18T12:13:21.178Z,8.83
2018-12-18T12:16:25.166Z,8.80
2018-12-18T12:19:29.182Z,7.67
2018-12-18T12:22:33.178Z,11.13
2018-12-18T12:25:37.174Z,9.73
2018-12-18T12:28:41.154Z,7.17
2018-12-18T12:31:45.156Z,7.23
2018-12-18T12:34:49.147Z,9.33
2018-12-18T12:37:53.157Z,10.47
2018-12-18T12:40:57.164Z,9.80
2018-12-18T12:44:01.155Z,8.90
2018-12-18T12:47:05.153Z,7.80
2018-12-18T12:50:09.319Z,10.50
2018-12-18T12:53:13.411Z,6.10
2018-12-18T12:56:17.419Z,7.60
2018-12-18T12:59:21.416Z,12.97
2018-12-18T13:02:25.422Z,13.23
2018-12-18T13:05:29.499Z,10.30
2018-12-18T13:08:33.519Z,9.53
2018-12-18T13:11:37.516Z,9.00
2018-12-18T13:14:41.919Z,10.03
2018-12-18T13:17:45.931Z,11.83
2018-12-18T13:20:49.914Z,8.57
2018-12-18T13:23:53.926Z,10.03
2018-12-18T13:26:57.938Z,10.53
2018-12-18T13:30:02.786Z,10.77
2018-12-18T13:33:06.789Z,9.30
2018-12-18T13:36:10.858Z,10.80
2018-12-18T13:39:14.954Z,8.43
2018-12-18T13:42:19.047Z,8.87
2018-12-18T13:45:23.146Z,8.60
2018-12-18T13:48:27.149Z,8.43
2018-12-18T13:51:31.143Z,9.30
2018-12-18T13:54:35.136Z,11.67
2018-12-18T13:57:39.178Z,13.43
2018-12-18T14:00:43.170Z,8.27
2018-12-18T14:03:47.271Z,14.00
2018-12-18T14:06:51.252Z,11.77
2018-12-18T14:09:55.271Z,14.40
2018-12-18T14:12:59.288Z,13.13
2018-12-18T14:16:03.382Z,11.60
2018-12-18T14:19:07.389Z,14.10
2018-12-18T14:22:11.407Z,12.20
2018-12-18T14:25:15.593Z,12.97
2018-12-18T14:28:19.619Z,15.87
2018-12-18T14:31:23.624Z,19.00
2018-12-18T14:34:27.639Z,17.60
2018-12-18T14:37:31.720Z,14.00
2018-12-18T14:40:35.746Z,16.80
2018-12-18T14:43:39.779Z,18.87
2018-12-18T14:46:43.787Z,18.10
2018-12-18T14:49:47.807Z,18.80
2018-12-18T14:52:51.807Z,16.20
2018-12-18T14:55:55.819Z,19.93
2018-12-18T14:58:59.858Z,16.77
2018-12-18T15:02:04.119Z,16.80
2018-12-18T15:05:08.226Z,17.70
2018-12-18T15:08:12.236Z,15.67
2018-12-18T15:11:16.254Z,14.47
2018-12-18T15:14:20.270Z,18.33
2018-12-18T15:17:24.270Z,17.80
2018-12-18T15:20:28.308Z,18.93
2018-12-18T15:23:32.323Z,22.73
2018-12-18T15:26:36.598Z,19.97
2018-12-18T15:29:40.620Z,22.40
2018-12-18T15:32:44.647Z,21.50
2018-12-18T15:35:48.727Z,22.77
2018-12-18T15:38:52.737Z,21.07
2018-12-18T15:41:56.855Z,20.00
2018-12-18T15:45:00.878Z,21.13
2018-12-18T15:48:04.978Z,20.97
2018-12-18T15:51:09.002Z,23.80
2018-12-18T15:54:13.027Z,22.60
2018-12-18T15:57:17.042Z,22.97
2018-12-18T16:00:21.062Z,24.73
2018-12-18T16:03:25.079Z,31.97
2018-12-18T16:06:29.114Z,30.73
2018-12-18T16:09:33.130Z,29.63
2018-12-18T16:12:37.123Z,31.27
2018-12-18T16:15:41.143Z,30.00
2018-12-18T16:18:45.163Z,27.60
2018-12-18T16:21:49.554Z,28.20
2018-12-18T16:24:53.588Z,30.83
2018-12-18T16:27:57.587Z,28.73
2018-12-18T16:31:01.605Z,28.47
2018-12-18T16:34:05.632Z,25.13
2018-12-18T16:37:09.727Z,29.77
2018-12-18T16:40:13.756Z,28.93
2018-12-18T16:43:17.998Z,27.90
2018-12-18T16:46:22.028Z,29.07
2018-12-18T16:49:26.140Z,27.43
2018-12-18T16:52:30.143Z,25.63
2018-12-18T16:55:34.184Z,31.10
2018-12-18T16:58:38.175Z,27.53
2018-12-18T17:01:42.202Z,26.40
2018-12-18T17:04:46.232Z,28.07
2018-12-18T17:07:50.239Z,22.97
2018-12-18T17:10:54.247Z,24.10
2018-12-18T17:13:58.300Z,21.87
2018-12-18T17:17:02.311Z,25.70
2018-12-18T17:20:06.881Z,24.13
2018-12-18T17:23:10.923Z,19.83
2018-12-18T17:26:15.730Z,22.87
2018-12-18T17:29:19.839Z,21.13
2018-12-18T17:32:25.303Z,20.00
2018-12-18T17:35:29.497Z,18.23
2018-12-18T17:38:34.306Z,19.00
2018-12-18T17:41:38.441Z,20.10
2018-12-18T17:44:42.439Z,20.27
2018-12-18T17:47:46.464Z,24.37
2018-12-18T17:50:50.487Z,22.97
2018-12-18T17:53:54.610Z,20.10
2018-12-18T17:56:58.652Z,28.13
2018-12-18T18:00:02.662Z,26.53
2018-12-18T18:03:06.680Z,24.97
2018-12-18T18:06:10.704Z,26.13
2018-12-18T18:09:14.722Z,24.17
2018-12-18T18:12:18.747Z,28.57
2018-12-18T18:15:22.930Z,25.20
2018-12-18T18:18:26.943Z,20.60
2018-12-18T18:21:30.958Z,25.10
2018-12-18T18:24:35.162Z,25.37
2018-12-18T18:27:39.190Z,22.83
2018-12-18T18:30:43.226Z,25.50
2018-12-18T18:33:47.235Z,25.63
2018-12-18T18:36:51.261Z,27.33
2018-12-18T18:39:55.315Z,25.27
2018-12-18T18:42:59.330Z,26.80
2018-12-18T18:46:03.358Z,26.73
2018-12-18T18:49:08.274Z,30.33
2018-12-18T18:52:12.299Z,28.40
2018-12-18T18:55:16.298Z,27.27
2018-12-18T18:58:20.307Z,26.97
2018-12-18T19:01:24.336Z,29.50
2018-12-18T19:04:28.362Z,29.13
2018-12-18T19:07:32.382Z,29.00
2018-12-18T19:10:36.392Z,31.80
2018-12-18T19:13:40.617Z,32.43
2018-12-18T19:16:44.715Z,31.13
2018-12-18T19:19:48.716Z,31.87
2018-12-18T19:22:52.735Z,27.00
2018-12-18T19:25:56.749Z,28.40
2018-12-18T19:29:00.751Z,30.80
2018-12-18T19:32:04.766Z,27.97
2018-12-18T19:35:08.892Z,27.20
2018-12-18T19:38:12.912Z,30.00
2018-12-18T19:41:16.927Z,29.03
2018-12-18T19:44:20.930Z,27.43
2018-12-18T19:47:25.148Z,35.03
2018-12-18T19:50:29.280Z,30.10
2018-12-18T19:53:33.391Z,28.30
2018-12-18T19:56:37.434Z,26.20
2018-12-18T19:59:42.023Z,33.97
2018-12-18T20:02:46.238Z,32.33
2018-12-18T20:05:50.259Z,30.47
2018-12-18T20:08:54.299Z,32.10
2018-12-18T20:11:58.324Z,28.70
2018-12-18T20:15:02.418Z,30.83
2018-12-18T20:18:06.445Z,32.03
2018-12-18T20:21:10.469Z,28.17
2018-12-18T20:24:14.530Z,27.60
2018-12-18T20:27:18.551Z,32.50
2018-12-18T20:30:22.655Z,35.83
2018-12-18T20:33:26.658Z,34.80
2018-12-18T20:36:30.686Z,29.27
2018-12-18T20:39:34.698Z,28.67
2018-12-18T20:42:38.722Z,27.03
2018-12-18T20:45:42.751Z,29.00
2018-12-18T20:48:46.766Z,27.00
2018-12-18T20:51:50.782Z,29.80
2018-12-18T20:54:54.800Z,30.47
2018-12-18T20:57:58.826Z,31.73
2018-12-18T21:01:02.835Z,29.27
2018-12-18T21:04:06.861Z,32.77
2018-12-18T21:07:10.859Z,31.53
2018-12-18T21:10:15.939Z,27.27
2018-12-18T21:13:28.569Z,26.90
2018-12-18T21:16:32.583Z,29.30
2018-12-18T21:19:36.594Z,27.37
2018-12-18T21:22:40.614Z,31.73
2018-12-18T21:25:44.635Z,28.00
2018-12-18T21:28:48.754Z,28.33
2018-12-18T21:31:52.763Z,27.87
2018-12-18T21:34:56.858Z,32.03
2018-12-18T21:38:00.955Z,28.17
2018-12-18T21:41:04.977Z,33.67
2018-12-18T21:44:08.995Z,28.43
2018-12-18T21:47:13.079Z,30.90
2018-12-18T21:50:17.218Z,30.33
2018-12-18T21:53:21.285Z,33.23
2018-12-18T21:56:25.338Z,30.50
2018-12-18T21:59:29.364Z,30.63
2018-12-18T22:02:33.374Z,31.00
2018-12-18T22:05:37.407Z,27.50
2018-12-18T22:08:41.419Z,27.97
2018-12-18T22:11:45.447Z,25.67
2018-12-18T22:14:49.574Z,27.93
2018-12-18T22:17:53.603Z,24.47
2018-12-18T22:20:57.612Z,24.07
2018-12-18T22:24:02.246Z,22.03
2018-12-18T22:27:06.376Z,28.37
2018-12-18T22:30:10.983Z,22.87
2018-12-18T22:33:15.051Z,23.83
2018-12-18T22:36:19.302Z,29.73
2018-12-18T22:39:23.576Z,24.50
2018-12-18T22:42:27.586Z,23.17
2018-12-18T22:45:31.607Z,24.77
2018-12-18T22:48:35.641Z,25.63
2018-12-18T22:51:39.666Z,27.60
2018-12-18T22:54:43.686Z,27.20
2018-12-18T22:57:47.788Z,35.00
2018-12-18T23:00:56.401Z,32.33
2018-12-18T23:04:00.502Z,32.43
2018-12-18T23:07:04.686Z,29.37
2018-12-18T23:10:08.926Z,37.40
2018-12-18T23:13:17.172Z,33.30
2018-12-18T23:16:21.196Z,24.93
2018-12-18T23:19:25.304Z,23.43
2018-12-18T23:22:29.315Z,25.57
2018-12-18T23:25:33.330Z,24.93
2018-12-18T23:28:37.340Z,28.20
2018-12-18T23:31:41.349Z,28.70
2018-12-18T23:34:45.370Z,27.37
2018-12-18T23:37:49.454Z,24.73
2018-12-18T23:40:53.486Z,25.33
2018-12-18T23:43:57.490Z,27.87
2018-12-18T23:47:01.498Z,22.83
2018-12-18T23:50:05.675Z,23.37
2018-12-18T23:53:09.689Z,25.10
2018-12-18T23:56:13.793Z,26.20
2018-12-18T23:59:17.799Z,25.30
